createdAt,value
2023-01-17T00:00:24.899Z,91.44
2023-01-17T00:02:57.727Z,92.24
2023-01-17T00:05:47.759Z,92.08
2023-01-17T00:08:49.337Z,92.69
2023-01-17T00:11:21.516Z,93.55
2023-01-17T00:13:53.537Z,93.74
2023-01-17T00:16:25.690Z,93.75
2023-01-17T00:19:16.652Z,93.71
2023-01-17T00:22:06.782Z,94.16
2023-01-17T00:24:56.864Z,94.10
2023-01-17T00:27:29.506Z,94.41
2023-01-17T00:30:01.143Z,94.29
2023-01-17T00:32:32.889Z,93.48
2023-01-17T00:35:05.779Z,93.80
2023-01-17T00:37:37.370Z,92.66
2023-01-17T00:40:09.919Z,93.02
2023-01-17T00:42:41.486Z,93.07
2023-01-17T00:45:31.906Z,93.28
2023-01-17T00:48:22.211Z,94.19
2023-01-17T00:51:12.989Z,94.95
2023-01-17T00:54:03.038Z,94.70
2023-01-17T00:56:53.538Z,95.75
2023-01-17T00:59:43.568Z,94.70
2023-01-17T01:02:34.189Z,94.82
2023-01-17T01:05:24.568Z,94.49
2023-01-17T01:08:15.696Z,93.92
2023-01-17T01:11:06.410Z,93.20
2023-01-17T01:13:56.439Z,92.87
2023-01-17T01:16:46.485Z,92.45
2023-01-17T01:19:37.059Z,91.95
2023-01-17T01:22:27.495Z,91.58
2023-01-17T01:25:18.435Z,91.09
2023-01-17T01:28:08.418Z,90.46
2023-01-17T01:30:58.456Z,90.29
2023-01-17T01:33:30.011Z,89.77
2023-01-17T01:36:02.062Z,89.70
2023-01-17T01:38:34.090Z,87.97
2023-01-17T01:41:07.064Z,88.37
2023-01-17T01:43:40.954Z,88.99
2023-01-17T01:46:14.889Z,89.62
2023-01-17T01:48:49.496Z,90.19
2023-01-17T01:51:23.667Z,89.72
2023-01-17T01:53:59.068Z,89.86
2023-01-17T01:56:32.175Z,88.78
2023-01-17T01:59:07.010Z,88.41
2023-01-17T02:01:40.804Z,87.95
2023-01-17T02:04:13.387Z,87.05
2023-01-17T02:06:47.688Z,87.38
2023-01-17T02:09:19.829Z,87.54
2023-01-17T02:11:52.716Z,88.28
2023-01-17T02:14:24.723Z,88.24
2023-01-17T02:17:03.551Z,88.25
2023-01-17T02:19:53.523Z,87.80
2023-01-17T02:22:39.476Z,88.47
2023-01-17T02:25:23.095Z,89.07
2023-01-17T02:28:06.376Z,87.93
2023-01-17T02:30:42.115Z,88.52
2023-01-17T02:33:21.934Z,88.70
2023-01-17T02:35:57.738Z,90.05
2023-01-17T02:38:33.897Z,91.01
2023-01-17T02:41:07.343Z,92.52
2023-01-17T02:43:40.648Z,94.61
2023-01-17T02:46:13.348Z,96.12
2023-01-17T02:48:46.019Z,96.71
2023-01-17T02:51:28.541Z,93.52
2023-01-17T02:54:11.753Z,94.74
2023-01-17T02:56:49.054Z,97.11
2023-01-17T02:59:31.250Z,97.33
2023-01-17T03:02:09.830Z,96.40
2023-01-17T03:04:44.153Z,94.59
2023-01-17T03:07:18.029Z,95.67
2023-01-17T03:09:52.819Z,95.19
2023-01-17T03:12:26.548Z,96.83
2023-01-17T03:14:58.586Z,96.69
2023-01-17T03:17:32.486Z,97.84
2023-01-17T03:20:04.893Z,96.91
2023-01-17T03:22:37.001Z,95.46
2023-01-17T03:25:09.527Z,96.23
2023-01-17T03:27:42.129Z,95.51
2023-01-17T03:30:15.347Z,95.23
2023-01-17T03:32:48.343Z,95.23
2023-01-17T03:35:20.442Z,95.80
2023-01-17T03:37:52.564Z,94.99
2023-01-17T03:40:24.648Z,96.06
2023-01-17T03:42:56.743Z,96.21
2023-01-17T03:45:28.789Z,97.00
2023-01-17T03:48:01.547Z,99.25
2023-01-17T03:50:33.594Z,98.83
2023-01-17T03:53:05.707Z,99.34
2023-01-17T03:55:37.735Z,97.67
2023-01-17T03:58:09.873Z,99.32
2023-01-17T04:00:42.258Z,97.50
2023-01-17T04:03:15.280Z,96.84
2023-01-17T04:05:47.537Z,96.37
2023-01-17T04:08:19.570Z,95.79
2023-01-17T04:10:51.711Z,95.83
2023-01-17T04:13:23.799Z,95.78
2023-01-17T04:15:55.858Z,95.20
2023-01-17T04:18:28.594Z,95.59
2023-01-17T04:21:01.116Z,94.83
2023-01-17T04:23:33.422Z,96.02
2023-01-17T04:26:05.597Z,95.27
2023-01-17T04:28:37.715Z,95.65
2023-01-17T04:31:13.848Z,95.18
2023-01-17T04:33:46.603Z,95.64
2023-01-17T04:36:18.700Z,95.61
2023-01-17T04:38:50.921Z,95.55
2023-01-17T04:41:23.041Z,95.16
2023-01-17T04:43:55.010Z,95.89
2023-01-17T04:46:27.201Z,96.42
2023-01-17T04:49:00.107Z,96.13
2023-01-17T04:51:32.632Z,95.21
2023-01-17T04:54:04.810Z,96.60
2023-01-17T04:56:36.921Z,96.75
2023-01-17T04:59:08.905Z,97.30
2023-01-17T05:01:41.086Z,95.32
2023-01-17T05:04:14.043Z,97.01
2023-01-17T05:06:46.127Z,95.81
2023-01-17T05:09:18.107Z,95.21
2023-01-17T05:11:50.181Z,95.23
2023-01-17T05:14:24.786Z,95.64
2023-01-17T05:16:57.342Z,95.09
2023-01-17T05:19:30.140Z,95.93
2023-01-17T05:22:14.372Z,96.16
2023-01-17T05:24:47.325Z,96.40
2023-01-17T05:27:19.395Z,95.94
2023-01-17T05:29:51.640Z,97.02
2023-01-17T05:32:23.764Z,96.71
2023-01-17T05:34:56.457Z,96.46
2023-01-17T05:37:28.528Z,96.74
2023-01-17T05:40:01.035Z,97.69
2023-01-17T05:42:33.203Z,97.95
2023-01-17T05:45:05.886Z,97.03
2023-01-17T05:47:37.969Z,97.77
2023-01-17T05:50:11.684Z,98.27
2023-01-17T05:52:48.835Z,97.18
2023-01-17T05:55:21.391Z,96.66
2023-01-17T05:57:53.959Z,96.39
2023-01-17T06:00:25.992Z,96.00
2023-01-17T06:02:58.797Z,95.52
2023-01-17T06:05:31.833Z,94.44
2023-01-17T06:08:04.062Z,95.07
2023-01-17T06:10:36.169Z,94.38
2023-01-17T06:13:09.406Z,94.41
2023-01-17T06:15:41.809Z,94.05
2023-01-17T06:18:15.991Z,94.02
2023-01-17T06:20:52.918Z,93.54
2023-01-17T06:23:25.119Z,93.46
2023-01-17T06:25:57.185Z,92.59
2023-01-17T06:28:29.265Z,92.76
2023-01-17T06:31:05.199Z,93.00
2023-01-17T06:33:37.255Z,92.87
2023-01-17T06:36:10.007Z,92.65
2023-01-17T06:38:41.974Z,92.13
2023-01-17T06:41:14.054Z,91.87
2023-01-17T06:43:46.521Z,92.54
2023-01-17T06:46:18.612Z,92.05
2023-01-17T06:48:50.637Z,92.43
2023-01-17T06:51:23.443Z,92.11
2023-01-17T06:53:55.574Z,91.95
2023-01-17T06:56:30.043Z,91.72
2023-01-17T06:59:02.117Z,92.25
2023-01-17T07:01:34.327Z,91.83
2023-01-17T07:04:06.486Z,91.94
2023-01-17T07:06:39.545Z,90.07
2023-01-17T07:09:12.108Z,90.51
2023-01-17T07:11:44.746Z,90.55
2023-01-17T07:14:16.935Z,90.37
2023-01-17T07:16:49.437Z,89.88
2023-01-17T07:19:21.763Z,89.30
2023-01-17T07:21:54.521Z,88.53
2023-01-17T07:24:26.502Z,89.72
2023-01-17T07:26:58.729Z,90.18
2023-01-17T07:29:30.770Z,90.79
2023-01-17T07:32:02.948Z,90.64
2023-01-17T07:34:34.966Z,90.88
2023-01-17T07:37:07.888Z,90.21
2023-01-17T07:39:39.939Z,90.28
2023-01-17T07:42:12.081Z,89.20
2023-01-17T07:44:44.491Z,88.12
2023-01-17T07:47:16.547Z,87.87
2023-01-17T07:49:48.685Z,87.98
2023-01-17T07:52:21.525Z,87.75
2023-01-17T07:54:53.693Z,87.36
2023-01-17T07:57:25.931Z,87.18
2023-01-17T07:59:57.963Z,88.00
2023-01-17T08:02:30.072Z,87.38
2023-01-17T08:05:02.247Z,87.05
2023-01-17T08:07:35.460Z,87.03
2023-01-17T08:10:12.246Z,87.42
2023-01-17T08:12:44.787Z,86.05
2023-01-17T08:15:17.583Z,86.90
2023-01-17T08:17:52.503Z,86.57
2023-01-17T08:20:26.788Z,86.99
2023-01-17T08:23:00.903Z,87.64
2023-01-17T08:25:34.596Z,87.34
2023-01-17T08:28:06.696Z,87.28
2023-01-17T08:30:38.909Z,87.29
2023-01-17T08:33:10.995Z,87.89
2023-01-17T08:35:52.519Z,87.85
2023-01-17T08:38:25.892Z,87.86
2023-01-17T08:40:59.679Z,88.86
2023-01-17T08:43:31.718Z,88.55
2023-01-17T08:46:05.521Z,88.07
2023-01-17T08:48:37.728Z,87.89
2023-01-17T08:51:10.301Z,87.92
2023-01-17T08:53:43.014Z,86.42
2023-01-17T08:56:15.093Z,86.38
2023-01-17T08:58:47.360Z,86.75
2023-01-17T09:01:19.502Z,86.36
2023-01-17T09:03:51.888Z,85.95
2023-01-17T09:06:23.981Z,85.94
2023-01-17T09:08:58.957Z,86.02
2023-01-17T09:11:31.120Z,85.69
2023-01-17T09:14:03.321Z,85.37
2023-01-17T09:16:35.388Z,84.83
2023-01-17T09:19:07.548Z,84.58
2023-01-17T09:21:39.588Z,83.94
2023-01-17T09:24:12.337Z,84.41
2023-01-17T09:26:44.724Z,83.29
2023-01-17T09:29:18.114Z,84.23
2023-01-17T09:31:50.150Z,83.59
2023-01-17T09:34:23.598Z,83.78
2023-01-17T09:36:56.243Z,82.87
2023-01-17T09:39:29.052Z,82.30
2023-01-17T09:42:03.008Z,82.41
2023-01-17T09:44:40.447Z,82.30
2023-01-17T09:47:16.499Z,81.44
2023-01-17T09:49:48.980Z,82.27
2023-01-17T09:52:22.646Z,81.72
2023-01-17T09:54:55.647Z,82.34
2023-01-17T09:57:37.589Z,82.09
2023-01-17T10:00:15.530Z,81.68
2023-01-17T10:02:54.355Z,82.33
2023-01-17T10:05:33.051Z,82.34
2023-01-17T10:08:23.286Z,82.12
2023-01-17T10:11:06.044Z,81.64
2023-01-17T10:13:43.199Z,80.85
2023-01-17T10:16:22.490Z,80.53
2023-01-17T10:19:03.928Z,79.98
2023-01-17T10:21:44.795Z,79.77
2023-01-17T10:24:43.913Z,79.51
2023-01-17T10:27:19.563Z,79.35
2023-01-17T10:29:51.787Z,80.36
2023-01-17T10:32:25.753Z,79.13
2023-01-17T10:35:00.830Z,79.92
2023-01-17T10:37:36.339Z,80.22
2023-01-17T10:40:13.800Z,79.75
2023-01-17T10:42:50.376Z,79.92
2023-01-17T10:45:27.720Z,80.20
2023-01-17T10:48:02.332Z,79.92
2023-01-17T10:50:39.394Z,79.94
2023-01-17T10:53:20.212Z,80.13
2023-01-17T10:55:53.004Z,80.34
2023-01-17T10:58:25.830Z,80.32
2023-01-17T11:01:00.037Z,80.38
2023-01-17T11:03:33.091Z,80.28
2023-01-17T11:06:15.436Z,80.78
2023-01-17T11:08:51.778Z,79.58
2023-01-17T11:11:24.981Z,78.89
2023-01-17T11:14:02.732Z,79.28
2023-01-17T11:16:36.616Z,79.54
2023-01-17T11:19:15.716Z,80.17
2023-01-17T11:21:52.253Z,79.20
2023-01-17T11:24:27.921Z,77.64
2023-01-17T11:27:00.102Z,77.38
2023-01-17T11:29:36.087Z,76.56
2023-01-17T11:32:32.855Z,76.34
2023-01-17T11:35:06.275Z,76.30
2023-01-17T11:37:38.385Z,76.37
2023-01-17T11:40:17.812Z,76.71
2023-01-17T11:42:59.043Z,76.37
2023-01-17T11:45:32.616Z,76.04
2023-01-17T11:48:10.040Z,75.61
2023-01-17T11:50:43.481Z,75.56
2023-01-17T11:53:18.454Z,75.83
2023-01-17T11:55:57.893Z,75.53
2023-01-17T11:58:30.974Z,74.24
2023-01-17T12:01:20.699Z,74.54
2023-01-17T12:04:02.579Z,74.13
2023-01-17T12:06:51.549Z,74.86
2023-01-17T12:09:35.256Z,74.07
2023-01-17T12:12:30.663Z,73.86
2023-01-17T12:15:06.115Z,73.79
2023-01-17T12:17:49.903Z,73.23
2023-01-17T12:20:26.963Z,73.49
2023-01-17T12:23:13.134Z,72.91
2023-01-17T12:25:55.226Z,73.10
2023-01-17T12:28:41.458Z,71.84
2023-01-17T12:31:17.903Z,72.06
2023-01-17T12:33:53.573Z,71.67
2023-01-17T12:36:34.793Z,71.32
2023-01-17T12:39:09.535Z,71.64
2023-01-17T12:41:52.841Z,71.62
2023-01-17T12:44:33.037Z,71.14
2023-01-17T12:47:05.664Z,70.65
2023-01-17T12:49:43.140Z,70.67
2023-01-17T12:52:19.029Z,70.28
2023-01-17T12:54:53.019Z,69.50
2023-01-17T12:57:26.652Z,69.72
2023-01-17T13:00:02.126Z,69.63
2023-01-17T13:02:37.152Z,69.97
2023-01-17T13:05:14.516Z,69.05
2023-01-17T13:07:50.069Z,69.13
2023-01-17T13:10:27.714Z,69.38
2023-01-17T13:13:02.023Z,68.77
2023-01-17T13:15:37.173Z,68.98
2023-01-17T13:18:13.656Z,67.44
2023-01-17T13:21:04.152Z,66.51
2023-01-17T13:23:44.301Z,67.63
2023-01-17T13:26:23.174Z,67.46
2023-01-17T13:28:59.612Z,66.58
2023-01-17T13:31:40.264Z,66.72
2023-01-17T13:34:27.498Z,66.80
2023-01-17T13:37:07.948Z,66.81
2023-01-17T13:39:51.835Z,66.30
2023-01-17T13:42:28.870Z,66.38
2023-01-17T13:45:05.942Z,66.75
2023-01-17T13:47:40.226Z,67.20
2023-01-17T13:50:29.933Z,67.82
2023-01-17T13:53:16.849Z,67.33
2023-01-17T13:55:52.530Z,67.44
2023-01-17T13:58:28.142Z,67.97
2023-01-17T14:01:00.342Z,68.11
2023-01-17T14:03:51.175Z,68.22
2023-01-17T14:06:28.301Z,69.06
2023-01-17T14:09:01.439Z,69.22
2023-01-17T14:11:35.121Z,68.99
2023-01-17T14:14:26.100Z,69.76
2023-01-17T14:17:26.021Z,69.74
2023-01-17T14:20:00.488Z,70.06
2023-01-17T14:22:35.058Z,70.36
2023-01-17T14:25:14.555Z,70.38
2023-01-17T14:27:49.000Z,71.18
2023-01-17T14:30:24.223Z,70.89
2023-01-17T14:33:07.981Z,70.43
2023-01-17T14:35:41.170Z,70.52
2023-01-17T14:38:15.796Z,70.65
2023-01-17T14:40:52.943Z,70.92
2023-01-17T14:43:27.461Z,70.78
2023-01-17T14:46:01.501Z,70.74
2023-01-17T14:48:34.021Z,71.05
2023-01-17T14:51:11.775Z,70.80
2023-01-17T14:53:51.643Z,71.23
2023-01-17T14:56:25.117Z,71.21
2023-01-17T14:59:04.668Z,71.35
2023-01-17T15:01:37.144Z,72.17
2023-01-17T15:04:21.148Z,71.92
2023-01-17T15:06:53.986Z,71.93
2023-01-17T15:09:27.809Z,72.18
2023-01-17T15:12:01.922Z,72.58
2023-01-17T15:14:37.256Z,72.96
2023-01-17T15:17:10.203Z,72.19
2023-01-17T15:19:43.259Z,72.97
2023-01-17T15:22:15.896Z,72.88
2023-01-17T15:24:48.995Z,73.44
2023-01-17T15:27:21.135Z,73.94
2023-01-17T15:29:56.738Z,74.40
2023-01-17T15:32:30.785Z,74.94
2023-01-17T15:35:05.603Z,75.63
2023-01-17T15:37:39.308Z,76.23
2023-01-17T15:40:17.224Z,77.03
2023-01-17T15:42:51.141Z,77.36
2023-01-17T15:45:26.935Z,78.88
2023-01-17T15:48:13.887Z,79.23
2023-01-17T15:50:46.737Z,80.25
2023-01-17T15:53:28.755Z,81.16
2023-01-17T15:56:01.317Z,82.03
2023-01-17T15:58:33.461Z,83.28
2023-01-17T16:01:14.500Z,83.30
2023-01-17T16:03:53.816Z,85.14
2023-01-17T16:06:34.873Z,87.02
2023-01-17T16:09:18.714Z,88.25
2023-01-17T16:11:50.762Z,90.30
2023-01-17T16:14:22.993Z,90.97
2023-01-17T16:16:56.196Z,91.06
2023-01-17T16:19:28.792Z,91.22
2023-01-17T16:22:02.447Z,91.15
2023-01-17T16:24:34.483Z,90.42
2023-01-17T16:27:06.970Z,90.94
2023-01-17T16:29:39.048Z,89.72
2023-01-17T16:32:11.817Z,88.20
2023-01-17T16:34:43.859Z,88.68
2023-01-17T16:37:15.961Z,87.30
2023-01-17T16:39:47.979Z,85.80
2023-01-17T16:42:20.031Z,84.62
2023-01-17T16:44:52.094Z,84.61
2023-01-17T16:47:25.012Z,83.24
2023-01-17T16:49:57.061Z,83.60
2023-01-17T16:52:58.524Z,82.99
2023-01-17T16:55:30.559Z,82.71
2023-01-17T16:58:02.680Z,83.03
2023-01-17T17:00:34.749Z,82.80
2023-01-17T17:03:07.516Z,83.35
2023-01-17T17:05:39.521Z,82.90
2023-01-17T17:08:11.678Z,82.83
2023-01-17T17:10:43.710Z,82.91
2023-01-17T17:13:15.823Z,82.30
2023-01-17T17:15:48.313Z,81.79
2023-01-17T17:18:21.372Z,80.39
2023-01-17T17:20:53.436Z,79.45
2023-01-17T17:23:25.551Z,79.01
2023-01-17T17:25:57.623Z,78.43
2023-01-17T17:28:29.752Z,78.15
2023-01-17T17:31:03.153Z,78.68
2023-01-17T17:33:36.255Z,76.88
2023-01-17T17:36:09.758Z,77.41
2023-01-17T17:38:50.260Z,77.98
2023-01-17T17:41:23.041Z,77.85
2023-01-17T17:43:55.535Z,76.54
2023-01-17T17:46:28.536Z,76.69
2023-01-17T17:49:01.446Z,76.53
2023-01-17T17:51:34.689Z,76.67
2023-01-17T17:54:07.508Z,76.42
2023-01-17T17:56:40.207Z,76.93
2023-01-17T17:59:14.022Z,75.24
2023-01-17T18:01:46.487Z,75.00
2023-01-17T18:04:19.458Z,74.21
2023-01-17T18:06:54.507Z,75.24
2023-01-17T18:09:26.766Z,76.97
2023-01-17T18:11:58.792Z,77.19
2023-01-17T18:14:30.877Z,77.56
2023-01-17T18:17:02.876Z,78.50
2023-01-17T18:19:35.971Z,78.35
2023-01-17T18:22:08.168Z,77.41
2023-01-17T18:24:40.249Z,76.24
2023-01-17T18:27:12.335Z,75.79
2023-01-17T18:29:44.444Z,75.47
2023-01-17T18:32:16.616Z,74.89
2023-01-17T18:34:50.790Z,75.93
2023-01-17T18:37:22.795Z,76.06
2023-01-17T18:39:54.910Z,76.60
2023-01-17T18:42:27.838Z,77.45
2023-01-17T18:44:59.896Z,77.97
2023-01-17T18:47:32.379Z,78.08
2023-01-17T18:50:05.667Z,78.90
2023-01-17T18:52:38.061Z,80.24
2023-01-17T18:55:10.174Z,81.18
2023-01-17T18:57:42.265Z,82.28
2023-01-17T19:00:14.796Z,83.28
2023-01-17T19:02:48.187Z,84.02
2023-01-17T19:05:21.268Z,83.45
2023-01-17T19:07:53.761Z,83.27
2023-01-17T19:10:25.957Z,82.30
2023-01-17T19:12:57.988Z,80.12
2023-01-17T19:15:30.128Z,78.75
2023-01-17T19:18:02.447Z,77.44
2023-01-17T19:20:35.606Z,76.45
2023-01-17T19:23:08.039Z,75.30
2023-01-17T19:25:40.204Z,74.16
2023-01-17T19:28:12.284Z,74.63
2023-01-17T19:30:44.388Z,74.45
2023-01-17T19:33:16.444Z,75.00
2023-01-17T19:35:49.261Z,74.91
2023-01-17T19:38:21.299Z,74.52
2023-01-17T19:40:53.479Z,75.01
2023-01-17T19:43:25.583Z,75.02
2023-01-17T19:45:58.317Z,76.08
2023-01-17T19:48:30.705Z,75.27
2023-01-17T19:51:04.326Z,74.75
2023-01-17T19:53:37.043Z,75.37
2023-01-17T19:56:10.540Z,74.39
2023-01-17T19:58:43.397Z,74.77
2023-01-17T20:01:16.727Z,74.45
2023-01-17T20:03:49.522Z,74.92
2023-01-17T20:06:23.576Z,75.24
2023-01-17T20:08:56.041Z,75.84
2023-01-17T20:11:28.579Z,77.28
2023-01-17T20:14:01.418Z,76.58
2023-01-17T20:16:35.147Z,76.35
2023-01-17T20:19:07.513Z,76.22
2023-01-17T20:21:40.530Z,76.79
2023-01-17T20:24:13.032Z,77.08
2023-01-17T20:26:45.314Z,77.29
2023-01-17T20:29:17.805Z,75.93
2023-01-17T20:31:52.110Z,76.16
2023-01-17T20:34:25.498Z,76.00
2023-01-17T20:36:58.737Z,75.74
2023-01-17T20:39:32.080Z,75.01
2023-01-17T20:42:04.614Z,75.66
2023-01-17T20:44:37.391Z,75.81
2023-01-17T20:47:09.419Z,75.46
2023-01-17T20:49:42.968Z,75.54
2023-01-17T20:52:15.897Z,76.13
2023-01-17T20:54:49.045Z,76.43
2023-01-17T20:57:22.020Z,76.77
2023-01-17T20:59:55.052Z,77.06
2023-01-17T21:02:27.793Z,77.98
2023-01-17T21:04:59.952Z,77.92
2023-01-17T21:07:33.100Z,77.71
2023-01-17T21:10:05.668Z,77.35
2023-01-17T21:12:37.731Z,77.07
2023-01-17T21:15:10.333Z,76.66
2023-01-17T21:17:43.781Z,75.90
2023-01-17T21:20:16.171Z,76.60
2023-01-17T21:22:48.938Z,76.73
2023-01-17T21:25:21.031Z,76.16
2023-01-17T21:27:53.072Z,76.54
2023-01-17T21:30:25.600Z,77.25
2023-01-17T21:32:57.648Z,77.29
2023-01-17T21:35:31.059Z,77.65
2023-01-17T21:38:03.819Z,78.40
2023-01-17T21:40:36.078Z,78.70
2023-01-17T21:43:08.504Z,79.98
2023-01-17T21:45:41.286Z,80.27
2023-01-17T21:48:13.908Z,79.93
2023-01-17T21:50:46.629Z,79.72
2023-01-17T21:53:19.410Z,80.48
2023-01-17T21:56:09.440Z,80.99
2023-01-17T21:58:44.310Z,81.24
2023-01-17T22:01:17.607Z,82.19
2023-01-17T22:03:50.785Z,82.83
2023-01-17T22:06:24.107Z,82.63
2023-01-17T22:08:57.314Z,82.34
2023-01-17T22:11:29.800Z,83.14
2023-01-17T22:14:03.726Z,83.05
2023-01-17T22:16:35.772Z,83.41
2023-01-17T22:19:07.832Z,82.28
2023-01-17T22:21:40.114Z,82.04
2023-01-17T22:24:15.958Z,81.66
2023-01-17T22:26:48.047Z,80.32
2023-01-17T22:29:21.095Z,80.86
2023-01-17T22:31:53.183Z,80.26
2023-01-17T22:34:25.527Z,79.52
2023-01-17T22:36:57.808Z,79.24
2023-01-17T22:39:30.605Z,79.54
2023-01-17T22:42:02.963Z,79.01
2023-01-17T22:44:35.129Z,78.52
2023-01-17T22:47:07.205Z,79.20
2023-01-17T22:49:39.343Z,79.15
2023-01-17T22:52:11.485Z,78.67
2023-01-17T22:54:44.753Z,79.40
2023-01-17T22:57:17.056Z,80.20
2023-01-17T22:59:49.338Z,79.20
2023-01-17T23:02:21.469Z,78.98
2023-01-17T23:04:53.646Z,79.28
2023-01-17T23:07:26.282Z,79.61
2023-01-17T23:09:59.019Z,79.85
2023-01-17T23:12:31.071Z,80.70
2023-01-17T23:15:21.594Z,80.58
2023-01-17T23:18:12.221Z,82.02
2023-01-17T23:20:44.281Z,81.78
2023-01-17T23:23:23.268Z,81.58
2023-01-17T23:25:59.897Z,82.54
2023-01-17T23:28:32.077Z,83.19
2023-01-17T23:31:04.411Z,83.30
2023-01-17T23:33:36.466Z,83.51
2023-01-17T23:36:11.087Z,84.04
2023-01-17T23:38:43.435Z,84.45
2023-01-17T23:41:34.669Z,84.46
2023-01-17T23:44:06.727Z,85.08
2023-01-17T23:46:38.956Z,85.07
2023-01-17T23:49:11.157Z,84.29
2023-01-17T23:51:43.345Z,84.87
2023-01-17T23:54:15.384Z,85.20
2023-01-17T23:56:48.157Z,85.33
2023-01-17T23:59:20.163Z,85.60
